Time;durP1;ratioP1;P1;durP2;ratioP2;P2;SDS_P1;SDS_P2;PMS_P1;PMS_P2;Temp;Humidity;BMP_temperature;BMP_pressure;BME280_temperature;BME280_humidity;BME280_pressure;Samples;Min_cycle;Max_cycle;Signal;HPM_P1;HPM_P2
2024/04/13 00:00:17;;;;;;;9.27;2.92;;;;;;;;;;5373884;26;20113;-67
2024/04/13 00:02:44;;;;;;;9.82;3.20;;;;;;;;;;5365587;26;20015;-67
2024/04/13 00:05:11;;;;;;;9.80;3.38;;;;;;;;;;5369463;26;20023;-67
2024/04/13 00:07:39;;;;;;;9.77;3.38;;;;;;;;;;5366412;26;20057;-67
2024/04/13 00:10:07;;;;;;;10.10;3.25;;;;;;;;;;5356529;26;20444;-67
2024/04/13 00:12:34;;;;;;;9.00;3.10;;;;;;;;;;5357193;26;20006;-67
2024/04/13 00:15:02;;;;;;;10.40;3.20;;;;;;;;;;5365319;26;20027;-67
2024/04/13 00:17:31;;;;;;;11.30;3.20;;;;;;;;;;5368904;26;20539;-67
2024/04/13 00:19:59;;;;;;;11.23;3.78;;;;;;;;;;5362067;26;20008;-67
2024/04/13 00:22:26;;;;;;;10.63;4.40;;;;;;;;;;5367911;26;20012;-68
2024/04/13 00:24:53;;;;;;;10.70;4.00;;;;;;;;;;5363596;26;20018;-67
2024/04/13 00:27:23;;;;;;;9.10;3.58;;;;;;;;;;5370876;26;20042;-68
2024/04/13 00:29:50;;;;;;;12.75;3.75;;;;;;;;;;5368107;26;20007;-67
2024/04/13 00:32:17;;;;;;;9.13;3.03;;;;;;;;;;5373393;26;20004;-68
2024/04/13 00:34:45;;;;;;;7.90;2.80;;;;;;;;;;5362869;26;20037;-67
2024/04/13 00:37:12;;;;;;;10.27;3.13;;;;;;;;;;5360558;26;20060;-68
2024/04/13 00:39:39;;;;;;;10.70;3.13;;;;;;;;;;5361618;26;20044;-67
2024/04/13 00:42:07;;;;;;;10.65;2.63;;;;;;;;;;5357319;26;20022;-68
2024/04/13 00:44:35;;;;;;;7.95;2.50;;;;;;;;;;5359733;26;20007;-68
2024/04/13 00:47:05;;;;;;;9.00;2.75;;;;;;;;;;5356774;26;23447;-68
2024/04/13 00:49:37;;;;;;;10.48;2.45;;;;;;;;;;5367195;26;20003;-67
2024/04/13 00:52:10;;;;;;;9.32;2.63;;;;;;;;;;5352474;26;20006;-68
2024/04/13 00:54:37;;;;;;;10.25;2.60;;;;;;;;;;5356897;26;20019;-68
2024/04/13 00:57:04;;;;;;;11.65;2.92;;;;;;;;;;5364430;26;20007;-68
2024/04/13 00:59:31;;;;;;;9.68;2.60;;;;;;;;;;5369197;26;20012;-68
2024/04/13 01:01:59;;;;;;;10.23;2.63;;;;;;;;;;5361041;26;20008;-67
2024/04/13 01:04:27;;;;;;;8.48;2.58;;;;;;;;;;5376054;26;20007;-67
2024/04/13 01:06:54;;;;;;;9.65;2.47;;;;;;;;;;5367566;26;20076;-67
2024/04/13 01:09:23;;;;;;;9.23;2.50;;;;;;;;;;5361011;26;20059;-68
2024/04/13 01:11:50;;;;;;;9.40;2.67;;;;;;;;;;5360113;26;20050;-67
2024/04/13 01:14:18;;;;;;;12.02;3.20;;;;;;;;;;5371595;26;20007;-68
2024/04/13 01:16:45;;;;;;;9.13;2.90;;;;;;;;;;5369298;26;20059;-67
2024/04/13 01:19:12;;;;;;;10.90;2.70;;;;;;;;;;5373442;26;20018;-68
2024/04/13 01:21:41;;;;;;;10.30;2.70;;;;;;;;;;5380577;26;20053;-67
2024/04/13 01:24:08;;;;;;;9.20;2.40;;;;;;;;;;5370616;26;20000;-67
2024/04/13 01:26:40;;;;;;;10.02;2.70;;;;;;;;;;5383557;26;20889;-68
2024/04/13 01:29:08;;;;;;;8.02;2.33;;;;;;;;;;5374927;26;20015;-68
2024/04/13 01:31:37;;;;;;;9.10;2.38;;;;;;;;;;5372406;26;20018;-67
2024/04/13 01:34:04;;;;;;;9.55;2.50;;;;;;;;;;5376157;26;20003;-67
2024/04/13 01:36:41;;;;;;;9.98;2.67;;;;;;;;;;5369841;26;20115;-69
2024/04/13 01:39:11;;;;;;;9.95;2.88;;;;;;;;;;5383674;26;20006;-67
2024/04/13 01:41:46;;;;;;;9.30;2.38;;;;;;;;;;5373354;26;20023;-68
2024/04/13 01:44:12;;;;;;;7.68;2.33;;;;;;;;;;5376852;26;20076;-67
2024/04/13 01:46:40;;;;;;;;;;;;;;;;;;5373807;26;20015;-68
2024/04/13 01:49:07;;;;;;;;;;;;;;;;;;5370778;26;20837;-68
2024/04/13 01:51:34;;;;;;;;;;;;;;;;;;5374634;26;19994;-67
2024/04/13 01:54:02;;;;;;;;;;;;;;;;;;5372233;26;19925;-68
2024/04/13 01:56:28;;;;;;;8.68;2.67;;;;;;;;;;5379661;26;19944;-68
2024/04/13 01:58:56;;;;;;;7.90;2.53;;;;;;;;;;5358840;26;20002;-68
2024/04/13 02:01:23;;;;;;;9.32;2.53;;;;;;;;;;5369087;26;20004;-68
2024/04/13 02:03:51;;;;;;;12.10;4.38;;;;;;;;;;5366100;26;20022;-68
2024/04/13 02:06:20;;;;;;;11.63;4.15;;;;;;;;;;5369627;26;20007;-67
2024/04/13 02:08:47;;;;;;;11.35;3.20;;;;;;;;;;5359311;26;20434;-68
2024/04/13 02:11:16;;;;;;;8.70;3.00;;;;;;;;;;5367834;26;20108;-67
2024/04/13 02:13:44;;;;;;;10.00;2.70;;;;;;;;;;5371435;26;19996;-67
2024/04/13 02:16:11;;;;;;;9.02;2.50;;;;;;;;;;5373323;26;20011;-67
2024/04/13 02:18:38;;;;;;;9.10;2.63;;;;;;;;;;5378770;26;20564;-67
2024/04/13 02:21:06;;;;;;;9.27;2.72;;;;;;;;;;5368822;26;20454;-68
2024/04/13 02:23:35;;;;;;;8.88;2.45;;;;;;;;;;5362340;26;20087;-68
2024/04/13 02:26:02;;;;;;;11.60;2.80;;;;;;;;;;5370899;26;20015;-68
2024/04/13 02:28:30;;;;;;;10.30;2.50;;;;;;;;;;5375763;26;20000;-70
2024/04/13 02:30:57;;;;;;;9.43;2.45;;;;;;;;;;5383378;26;20004;-67
2024/04/13 02:33:25;;;;;;;9.15;2.40;;;;;;;;;;5372915;26;20014;-68
2024/04/13 02:35:58;;;;;;;9.02;2.78;;;;;;;;;;5355892;26;20027;-67
2024/04/13 02:38:26;;;;;;;8.30;2.22;;;;;;;;;;5371114;26;20014;-67
2024/04/13 02:40:58;;;;;;;9.48;2.22;;;;;;;;;;5357216;26;20449;-67
2024/04/13 02:43:26;;;;;;;10.52;2.90;;;;;;;;;;5352911;26;20011;-67
2024/04/13 02:45:54;;;;;;;8.23;3.10;;;;;;;;;;5367121;26;20089;-67
2024/04/13 02:48:21;;;;;;;10.63;3.95;;;;;;;;;;5372847;26;20022;-67
2024/04/13 02:50:48;;;;;;;12.60;4.57;;;;;;;;;;5368036;26;20095;-68
2024/04/13 02:53:16;;;;;;;10.80;4.50;;;;;;;;;;5374851;26;20018;-67
2024/04/13 02:55:44;;;;;;;11.73;3.92;;;;;;;;;;5374623;26;20011;-67
2024/04/13 02:58:11;;;;;;;12.13;4.05;;;;;;;;;;5370388;26;20009;-67
2024/04/13 03:00:38;;;;;;;10.88;4.03;;;;;;;;;;5375557;26;20003;-67
2024/04/13 03:03:06;;;;;;;10.50;3.80;;;;;;;;;;5371171;26;20004;-67
2024/04/13 03:05:33;;;;;;;10.82;3.17;;;;;;;;;;5371077;26;20014;-67
2024/04/13 03:08:01;;;;;;;9.48;3.15;;;;;;;;;;5361605;26;20015;-67
2024/04/13 03:10:28;;;;;;;9.35;3.05;;;;;;;;;;5355297;26;20022;-67
2024/04/13 03:12:56;;;;;;;11.07;2.60;;;;;;;;;;5361473;26;20019;-67
2024/04/13 03:15:23;;;;;;;10.20;2.95;;;;;;;;;;5380967;26;20002;-67
2024/04/13 03:17:49;;;;;;;9.45;2.80;;;;;;;;;;5354762;26;20018;-67
2024/04/13 03:20:16;;;;;;;9.25;2.70;;;;;;;;;;5378937;26;19999;-67
2024/04/13 03:22:44;;;;;;;10.60;2.65;;;;;;;;;;5373837;26;20089;-68
2024/04/13 03:25:11;;;;;;;12.10;2.97;;;;;;;;;;5374629;26;20003;-67
2024/04/13 03:27:38;;;;;;;8.35;2.80;;;;;;;;;;5370940;26;20587;-67
2024/04/13 03:30:07;;;;;;;10.05;2.90;;;;;;;;;;5366918;26;20007;-67
2024/04/13 03:32:33;;;;;;;9.73;2.70;;;;;;;;;;5372914;26;20014;-67
2024/04/13 03:35:00;;;;;;;;;;;;;;;;;;5369439;26;19998;-67
2024/04/13 03:37:27;;;;;;;7.32;2.47;;;;;;;;;;5388350;26;19924;-67
2024/04/13 03:39:54;;;;;;;;;;;;;;;;;;5370616;26;20017;-67
2024/04/13 03:42:22;;;;;;;7.82;2.30;;;;;;;;;;5370841;26;19925;-67
2024/04/13 03:44:50;;;;;;;8.13;2.42;;;;;;;;;;5352391;26;20010;-68
2024/04/13 03:47:18;;;;;;;9.20;3.30;;;;;;;;;;5375660;26;20011;-67
2024/04/13 03:49:45;;;;;;;9.02;2.95;;;;;;;;;;5372124;26;20014;-67
2024/04/13 03:52:12;;;;;;;10.32;2.90;;;;;;;;;;5373559;26;20104;-67
2024/04/13 03:54:41;;;;;;;10.25;2.97;;;;;;;;;;5368765;26;20584;-68
2024/04/13 03:57:09;;;;;;;10.48;2.45;;;;;;;;;;5371636;26;20011;-67
2024/04/13 03:59:36;;;;;;;9.85;2.55;;;;;;;;;;5369341;26;20015;-67
2024/04/13 04:02:04;;;;;;;12.35;2.55;;;;;;;;;;5368373;26;20715;-67
2024/04/13 04:04:31;;;;;;;12.35;2.83;;;;;;;;;;5361214;26;20015;-69
2024/04/13 04:06:59;;;;;;;11.05;2.30;;;;;;;;;;5365289;26;20661;-69
2024/04/13 04:09:26;;;;;;;11.75;2.53;;;;;;;;;;5370457;26;21093;-69
2024/04/13 04:11:53;;;;;;;8.30;2.28;;;;;;;;;;5352376;26;20018;-68
2024/04/13 04:14:21;;;;;;;9.80;2.65;;;;;;;;;;5361162;26;20014;-68
2024/04/13 04:16:50;;;;;;;11.38;2.40;;;;;;;;;;5361957;26;21037;-66
2024/04/13 04:19:18;;;;;;;9.35;2.47;;;;;;;;;;5372774;26;20079;-67
2024/04/13 04:21:45;;;;;;;10.88;2.45;;;;;;;;;;5363808;26;20004;-68
2024/04/13 04:24:11;;;;;;;9.13;2.45;;;;;;;;;;5365790;26;20016;-68
2024/04/13 04:26:37;;;;;;;11.13;2.30;;;;;;;;;;5372662;26;20015;-68
2024/04/13 04:29:04;;;;;;;9.35;2.42;;;;;;;;;;5364594;26;20420;-69
2024/04/13 04:31:32;;;;;;;9.90;2.72;;;;;;;;;;5368534;26;20000;-68
2024/04/13 04:34:00;;;;;;;11.43;2.97;;;;;;;;;;5351592;26;20712;-67
2024/04/13 04:36:27;;;;;;;12.80;2.65;;;;;;;;;;5371854;26;20012;-68
2024/04/13 04:38:55;;;;;;;10.25;2.70;;;;;;;;;;5364463;26;20357;-68
2024/04/13 04:41:24;;;;;;;10.18;2.60;;;;;;;;;;5375072;26;20015;-67
2024/04/13 04:43:51;;;;;;;8.00;2.28;;;;;;;;;;5363484;26;20210;-68
2024/04/13 04:46:20;;;;;;;10.32;2.70;;;;;;;;;;5380235;26;20010;-68
2024/04/13 04:48:51;;;;;;;8.52;2.38;;;;;;;;;;5372687;26;20022;-67
2024/04/13 04:51:18;;;;;;;12.32;3.00;;;;;;;;;;5375094;26;19995;-68
2024/04/13 04:53:46;;;;;;;14.23;3.25;;;;;;;;;;5357025;26;20015;-68
2024/04/13 04:56:13;;;;;;;16.77;3.10;;;;;;;;;;5379418;26;20116;-67
2024/04/13 04:58:40;;;;;;;10.48;2.35;;;;;;;;;;5381589;26;19999;-68
2024/04/13 05:01:08;;;;;;;12.13;2.80;;;;;;;;;;5366612;26;20897;-67
2024/04/13 05:03:36;;;;;;;10.20;2.50;;;;;;;;;;5372608;26;20014;-68
2024/04/13 05:06:05;;;;;;;10.60;2.92;;;;;;;;;;5354674;26;20080;-67
2024/04/13 05:08:32;;;;;;;11.75;2.83;;;;;;;;;;5359696;26;20633;-68
2024/04/13 05:11:00;;;;;;;9.40;2.40;;;;;;;;;;5369465;26;20011;-68
2024/04/13 05:13:31;;;;;;;12.55;3.00;;;;;;;;;;5367004;26;20003;-68
2024/04/13 05:15:58;;;;;;;10.75;2.70;;;;;;;;;;5365612;26;19999;-69
2024/04/13 05:18:25;;;;;;;10.55;2.70;;;;;;;;;;5364859;26;20097;-67
2024/04/13 05:20:53;;;;;;;9.90;2.70;;;;;;;;;;5367670;26;20018;-68
2024/04/13 05:23:20;;;;;;;10.00;2.53;;;;;;;;;;5372724;26;20003;-68
2024/04/13 05:25:48;;;;;;;8.75;2.83;;;;;;;;;;5372807;26;20015;-68
2024/04/13 05:28:15;;;;;;;11.18;2.88;;;;;;;;;;5367734;26;20003;-68
2024/04/13 05:30:48;;;;;;;12.30;2.83;;;;;;;;;;5358452;26;20007;-68
2024/04/13 05:33:16;;;;;;;9.23;2.30;;;;;;;;;;5371814;26;20854;-68
2024/04/13 05:35:43;;;;;;;11.10;2.70;;;;;;;;;;5377705;26;20011;-68
2024/04/13 05:38:10;;;;;;;8.95;2.65;;;;;;;;;;5367589;26;20226;-68
2024/04/13 05:40:38;;;;;;;13.85;2.80;;;;;;;;;;5364822;26;20067;-68
2024/04/13 05:43:06;;;;;;;9.63;2.25;;;;;;;;;;5372310;26;20994;-68
2024/04/13 05:45:36;;;;;;;9.20;2.53;;;;;;;;;;5379349;26;19999;-68
2024/04/13 05:48:04;;;;;;;9.38;2.50;;;;;;;;;;5367533;26;24099;-68
2024/04/13 05:50:33;;;;;;;10.43;3.05;;;;;;;;;;5365655;26;20058;-68
2024/04/13 05:53:01;;;;;;;8.48;2.60;;;;;;;;;;5370304;26;20109;-68
2024/04/13 05:55:28;;;;;;;8.10;2.28;;;;;;;;;;5381716;26;20003;-68
2024/04/13 05:57:55;;;;;;;10.80;2.58;;;;;;;;;;5367387;26;19998;-68
2024/04/13 06:00:23;;;;;;;13.07;2.70;;;;;;;;;;5359146;26;20003;-68
2024/04/13 06:02:50;;;;;;;12.68;2.97;;;;;;;;;;5364540;26;20018;-68
2024/04/13 06:05:18;;;;;;;27.95;5.43;;;;;;;;;;5364542;26;20000;-68
2024/04/13 06:07:45;;;;;;;25.33;7.55;;;;;;;;;;5365682;26;19999;-68
2024/04/13 06:10:11;;;;;;;18.67;7.10;;;;;;;;;;5366202;26;20018;-68
2024/04/13 06:12:39;;;;;;;24.42;9.82;;;;;;;;;;5372942;26;20022;-68
2024/04/13 06:15:06;;;;;;;26.23;8.25;;;;;;;;;;5355840;26;20010;-69
2024/04/13 06:17:34;;;;;;;23.30;9.77;;;;;;;;;;5371752;26;20092;-68
2024/04/13 06:20:02;;;;;;;21.02;8.05;;;;;;;;;;5362221;26;20554;-68
2024/04/13 06:22:29;;;;;;;19.70;8.45;;;;;;;;;;5372264;26;20108;-68
2024/04/13 06:24:57;;;;;;;15.27;6.78;;;;;;;;;;5367620;26;20595;-68
2024/04/13 06:27:24;;;;;;;16.38;7.20;;;;;;;;;;5369370;26;20008;-68
2024/04/13 06:29:51;;;;;;;16.13;6.45;;;;;;;;;;5353569;26;20063;-68
2024/04/13 06:32:20;;;;;;;16.20;7.30;;;;;;;;;;5365319;26;20003;-68
2024/04/13 06:34:48;;;;;;;17.13;7.00;;;;;;;;;;5367494;26;20010;-69
2024/04/13 06:37:15;;;;;;;18.95;7.22;;;;;;;;;;5363985;26;20023;-69
2024/04/13 06:39:42;;;;;;;15.90;5.97;;;;;;;;;;5373565;26;19995;-69
2024/04/13 06:42:09;;;;;;;19.10;5.32;;;;;;;;;;5368469;26;20023;-69
2024/04/13 06:44:36;;;;;;;15.75;5.10;;;;;;;;;;5361555;26;20023;-67
2024/04/13 06:47:03;;;;;;;12.82;5.38;;;;;;;;;;5374409;26;20012;-67
2024/04/13 06:49:31;;;;;;;14.77;5.63;;;;;;;;;;5376635;26;20004;-67
2024/04/13 06:51:58;;;;;;;16.67;5.72;;;;;;;;;;5356165;26;20002;-67
2024/04/13 06:54:27;;;;;;;15.75;5.28;;;;;;;;;;5373075;26;20004;-66
2024/04/13 06:56:54;;;;;;;16.70;5.40;;;;;;;;;;5355022;26;20011;-69
2024/04/13 06:59:21;;;;;;;16.48;5.60;;;;;;;;;;5351579;26;20030;-67
2024/04/13 07:01:49;;;;;;;13.23;4.93;;;;;;;;;;5373291;26;20006;-69
2024/04/13 07:04:17;;;;;;;12.40;4.82;;;;;;;;;;5376884;26;20014;-68
2024/04/13 07:06:45;;;;;;;17.42;5.30;;;;;;;;;;5370395;26;20003;-68
2024/04/13 07:09:13;;;;;;;13.93;5.57;;;;;;;;;;5380086;26;20018;-68
2024/04/13 07:11:41;;;;;;;15.80;5.47;;;;;;;;;;5358732;26;20011;-68
2024/04/13 07:14:10;;;;;;;13.70;5.95;;;;;;;;;;5373625;26;20066;-68
2024/04/13 07:16:37;;;;;;;13.95;5.78;;;;;;;;;;5373889;26;20010;-68
2024/04/13 07:19:04;;;;;;;15.30;6.40;;;;;;;;;;5369487;26;20060;-67
2024/04/13 07:21:31;;;;;;;20.73;9.23;;;;;;;;;;5384193;26;20653;-68
2024/04/13 07:24:00;;;;;;;23.27;9.95;;;;;;;;;;5375899;26;20006;-68
2024/04/13 07:26:28;;;;;;;18.83;9.63;;;;;;;;;;5382456;26;20410;-67
2024/04/13 07:28:56;;;;;;;19.70;9.38;;;;;;;;;;5373372;26;20135;-68
2024/04/13 07:31:22;;;;;;;18.27;8.85;;;;;;;;;;5380227;26;20007;-67
2024/04/13 07:33:49;;;;;;;;;;;;;;;;;;5379989;26;20649;-68
2024/04/13 07:36:16;;;;;;;21.23;9.00;;;;;;;;;;5384954;26;19924;-68
2024/04/13 07:38:44;;;;;;;19.13;8.20;;;;;;;;;;5372872;26;20011;-67
2024/04/13 07:41:11;;;;;;;15.82;6.63;;;;;;;;;;5374175;26;20083;-67
2024/04/13 07:43:38;;;;;;;14.38;6.10;;;;;;;;;;5360373;26;20588;-67
2024/04/13 07:46:05;;;;;;;12.27;5.82;;;;;;;;;;5353837;26;20008;-67
2024/04/13 07:48:32;;;;;;;12.38;5.88;;;;;;;;;;5377245;26;20112;-67
2024/04/13 07:51:00;;;;;;;13.60;6.30;;;;;;;;;;5360485;26;20015;-67
2024/04/13 07:53:30;;;;;;;12.02;6.13;;;;;;;;;;5369464;26;20004;-67
2024/04/13 07:56:00;;;;;;;12.70;5.28;;;;;;;;;;5369949;26;20026;-67
2024/04/13 07:58:28;;;;;;;14.07;4.88;;;;;;;;;;5373523;26;20003;-68
2024/04/13 08:00:54;;;;;;;11.25;4.55;;;;;;;;;;5372170;26;20099;-68
2024/04/13 08:03:23;;;;;;;11.13;4.40;;;;;;;;;;5371972;26;20003;-67
2024/04/13 08:05:50;;;;;;;10.82;4.57;;;;;;;;;;5355332;26;20018;-67
2024/04/13 08:08:16;;;;;;;19.55;6.15;;;;;;;;;;5368832;26;21038;-67
2024/04/13 08:10:44;;;;;;;15.15;6.05;;;;;;;;;;5367038;26;20012;-67
2024/04/13 08:13:11;;;;;;;12.90;5.65;;;;;;;;;;5372260;26;20017;-67
2024/04/13 08:15:39;;;;;;;13.82;6.25;;;;;;;;;;5363316;26;20004;-67
2024/04/13 08:18:07;;;;;;;15.68;6.80;;;;;;;;;;5370507;26;20088;-67
2024/04/13 08:20:34;;;;;;;18.38;7.85;;;;;;;;;;5369787;26;20014;-67
2024/04/13 08:23:02;;;;;;;14.75;6.53;;;;;;;;;;5365817;26;20003;-67
2024/04/13 08:25:32;;;;;;;15.02;6.57;;;;;;;;;;5368457;26;20464;-67
2024/04/13 08:28:01;;;;;;;16.67;6.68;;;;;;;;;;5360808;26;20646;-67
2024/04/13 08:30:29;;;;;;;10.48;4.50;;;;;;;;;;5363934;26;20006;-68
2024/04/13 08:32:57;;;;;;;14.05;4.28;;;;;;;;;;5364455;26;20027;-67
2024/04/13 08:35:24;;;;;;;10.63;3.65;;;;;;;;;;5367421;26;19999;-67
2024/04/13 08:37:52;;;;;;;10.85;3.63;;;;;;;;;;5369657;26;20014;-68
2024/04/13 08:40:20;;;;;;;13.20;3.15;;;;;;;;;;5376166;26;20135;-68
2024/04/13 08:42:50;;;;;;;11.27;3.40;;;;;;;;;;5370642;26;20007;-68
2024/04/13 08:45:17;;;;;;;10.82;2.85;;;;;;;;;;5341747;26;20750;-67
2024/04/13 08:47:47;;;;;;;10.38;2.80;;;;;;;;;;5371144;26;19999;-69
2024/04/13 08:50:14;;;;;;;10.00;2.65;;;;;;;;;;5372831;26;20441;-67
2024/04/13 08:52:45;;;;;;;11.20;3.00;;;;;;;;;;5370456;26;20004;-67
2024/04/13 08:55:12;;;;;;;10.45;3.00;;;;;;;;;;5371557;26;20000;-67
2024/04/13 08:57:40;;;;;;;11.23;2.78;;;;;;;;;;5368160;26;20031;-67
2024/04/13 09:00:13;;;;;;;11.63;2.80;;;;;;;;;;5353373;26;20396;-68
2024/04/13 09:02:53;;;;;;;7.85;2.40;;;;;;;;;;5371774;26;20478;-67
2024/04/13 09:05:20;;;;;;;10.63;2.83;;;;;;;;;;5374705;26;20521;-67
2024/04/13 09:07:50;;;;;;;9.25;2.60;;;;;;;;;;5370119;26;20003;-67
2024/04/13 09:10:19;;;;;;;9.70;2.80;;;;;;;;;;5371587;26;20030;-67
2024/04/13 09:12:48;;;;;;;13.23;2.58;;;;;;;;;;5368949;26;20015;-67
2024/04/13 09:15:15;;;;;;;9.85;2.72;;;;;;;;;;5379356;26;20997;-67
2024/04/13 09:17:43;;;;;;;11.77;3.20;;;;;;;;;;5375208;26;20076;-67
2024/04/13 09:20:12;;;;;;;15.55;3.00;;;;;;;;;;5369882;26;20011;-67
2024/04/13 09:22:40;;;;;;;10.55;3.00;;;;;;;;;;5370780;26;20101;-66
2024/04/13 09:25:11;;;;;;;12.85;3.22;;;;;;;;;;5363704;26;20007;-67
2024/04/13 09:27:40;;;;;;;12.57;3.10;;;;;;;;;;5374934;26;20061;-66
2024/04/13 09:30:10;;;;;;;11.73;3.10;;;;;;;;;;5368964;26;19994;-69
2024/04/13 09:32:37;;;;;;;16.13;3.05;;;;;;;;;;5380545;26;20015;-68
2024/04/13 09:35:13;;;;;;;11.07;2.85;;;;;;;;;;5369540;26;20023;-69
2024/04/13 09:37:41;;;;;;;15.13;2.97;;;;;;;;;;5390140;26;20010;-68
2024/04/13 09:40:10;;;;;;;13.50;2.80;;;;;;;;;;5375215;26;20015;-67
2024/04/13 09:42:38;;;;;;;14.15;2.97;;;;;;;;;;5372711;26;20022;-67
2024/04/13 09:45:11;;;;;;;13.77;3.95;;;;;;;;;;5374147;26;19995;-67
2024/04/13 09:47:39;;;;;;;11.50;3.78;;;;;;;;;;5383339;26;20054;-67
2024/04/13 09:50:06;;;;;;;12.55;4.00;;;;;;;;;;5368075;26;20085;-67
2024/04/13 09:52:34;;;;;;;13.35;4.47;;;;;;;;;;5367582;26;20003;-69
2024/04/13 09:55:04;;;;;;;12.10;4.38;;;;;;;;;;5376646;26;20076;-69
2024/04/13 09:57:31;;;;;;;14.23;4.50;;;;;;;;;;5376279;26;20019;-68
2024/04/13 10:00:00;;;;;;;14.23;4.20;;;;;;;;;;5377867;26;20039;-67
2024/04/13 10:02:30;;;;;;;15.40;4.50;;;;;;;;;;5384441;26;20022;-68
2024/04/13 10:05:01;;;;;;;13.30;4.18;;;;;;;;;;5369409;26;20520;-68
2024/04/13 10:07:29;;;;;;;12.85;3.88;;;;;;;;;;5374661;26;20019;-67
2024/04/13 10:09:59;;;;;;;10.55;3.30;;;;;;;;;;5356488;26;20014;-67
2024/04/13 10:12:33;;;;;;;13.02;3.50;;;;;;;;;;5377316;26;20013;-68
2024/04/13 10:15:04;;;;;;;10.48;3.05;;;;;;;;;;5368111;26;19996;-68
2024/04/13 10:17:32;;;;;;;8.60;2.58;;;;;;;;;;5363748;26;20011;-68
2024/04/13 10:19:59;;;;;;;11.02;3.22;;;;;;;;;;5371879;26;20018;-68
2024/04/13 10:22:27;;;;;;;10.48;3.28;;;;;;;;;;5383284;26;20048;-68
2024/04/13 10:25:02;;;;;;;11.65;3.70;;;;;;;;;;5354189;26;19996;-68
2024/04/13 10:27:29;;;;;;;;;;;;;;;;;;5369947;26;20474;-69
2024/04/13 10:29:59;;;;;;;12.02;3.90;;;;;;;;;;5372491;26;19940;-69
2024/04/13 10:32:27;;;;;;;11.73;4.03;;;;;;;;;;5340796;26;20019;-69
2024/04/13 10:34:58;;;;;;;13.50;3.92;;;;;;;;;;5378420;26;20015;-67
2024/04/13 10:37:39;;;;;;;15.25;3.45;;;;;;;;;;5377303;26;19999;-68
2024/04/13 10:40:06;;;;;;;13.57;4.03;;;;;;;;;;5361447;26;20011;-68
2024/04/13 10:42:43;;;;;;;13.68;4.20;;;;;;;;;;5372322;26;20487;-68
2024/04/13 10:45:17;;;;;;;12.23;4.43;;;;;;;;;;5366207;26;19999;-68
2024/04/13 10:47:45;;;;;;;15.70;4.10;;;;;;;;;;5380821;26;20007;-67
2024/04/13 10:50:18;;;;;;;12.85;3.97;;;;;;;;;;5380273;26;20895;-67
2024/04/13 10:52:46;;;;;;;14.00;4.20;;;;;;;;;;5381457;26;20641;-68
2024/04/13 10:55:17;;;;;;;9.68;4.57;;;;;;;;;;5359739;26;20073;-70
2024/04/13 10:57:49;;;;;;;10.63;3.92;;;;;;;;;;5373290;26;20055;-68
2024/04/13 11:00:17;;;;;;;12.88;3.88;;;;;;;;;;5371436;26;20069;-69
2024/04/13 11:02:50;;;;;;;13.02;3.78;;;;;;;;;;5369761;26;20011;-68
2024/04/13 11:05:33;;;;;;;9.52;2.90;;;;;;;;;;5373027;26;20019;-68
2024/04/13 11:08:00;;;;;;;9.25;2.72;;;;;;;;;;5363510;26;20528;-67
2024/04/13 11:10:28;;;;;;;11.43;2.67;;;;;;;;;;5372961;26;20011;-68
2024/04/13 11:12:55;;;;;;;9.30;2.30;;;;;;;;;;5361570;26;20031;-68
2024/04/13 11:15:24;;;;;;;11.23;2.75;;;;;;;;;;5384439;26;20007;-69
2024/04/13 11:17:53;;;;;;;9.93;2.58;;;;;;;;;;5354903;26;20007;-68
2024/04/13 11:20:20;;;;;;;8.93;2.65;;;;;;;;;;5375979;26;20572;-66
2024/04/13 11:22:48;;;;;;;8.40;2.40;;;;;;;;;;5367604;26;20058;-67
2024/04/13 11:25:16;;;;;;;9.63;2.55;;;;;;;;;;5366268;26;20146;-66
2024/04/13 11:27:45;;;;;;;10.50;2.40;;;;;;;;;;5382901;26;19996;-68
2024/04/13 11:30:13;;;;;;;9.05;2.63;;;;;;;;;;5362249;26;20007;-68
2024/04/13 11:32:41;;;;;;;13.10;3.03;;;;;;;;;;5369204;26;20036;-67
2024/04/13 11:35:19;;;;;;;10.18;2.97;;;;;;;;;;5364998;26;20063;-67
2024/04/13 11:38:01;;;;;;;13.68;3.00;;;;;;;;;;5378627;26;20019;-67
2024/04/13 11:40:35;;;;;;;11.32;2.67;;;;;;;;;;5374079;26;20016;-68
2024/04/13 11:43:04;;;;;;;12.48;2.60;;;;;;;;;;5374948;26;20232;-67
2024/04/13 11:45:32;;;;;;;10.55;2.83;;;;;;;;;;5367758;26;20051;-67
2024/04/13 11:47:59;;;;;;;8.02;2.38;;;;;;;;;;5368516;26;20854;-66
2024/04/13 11:50:29;;;;;;;12.50;2.35;;;;;;;;;;5363102;26;20017;-68
2024/04/13 11:52:57;;;;;;;11.77;2.45;;;;;;;;;;5371968;26;20059;-67
2024/04/13 11:55:26;;;;;;;8.90;2.40;;;;;;;;;;5375163;26;20014;-67
2024/04/13 11:57:55;;;;;;;8.98;2.10;;;;;;;;;;5374570;26;20876;-69
2024/04/13 12:00:21;;;;;;;9.27;2.45;;;;;;;;;;5361683;26;20146;-68
2024/04/13 12:02:49;;;;;;;10.73;3.00;;;;;;;;;;5361666;26;20019;-67
2024/04/13 12:05:16;;;;;;;10.10;2.30;;;;;;;;;;5380692;26;20007;-68
2024/04/13 12:07:44;;;;;;;12.48;2.33;;;;;;;;;;5374834;26;20544;-68
2024/04/13 12:10:13;;;;;;;15.38;3.00;;;;;;;;;;5367466;26;20572;-68
2024/04/13 12:12:57;;;;;;;9.00;2.25;;;;;;;;;;5370259;26;20013;-68
2024/04/13 12:15:25;;;;;;;9.93;2.40;;;;;;;;;;5374105;26;19999;-68
2024/04/13 12:17:52;;;;;;;9.68;2.42;;;;;;;;;;5355593;26;19999;-67
2024/04/13 12:20:20;;;;;;;8.80;2.00;;;;;;;;;;5374100;26;20003;-67
2024/04/13 12:22:47;;;;;;;10.43;2.17;;;;;;;;;;5372766;26;20044;-67
2024/04/13 12:25:15;;;;;;;9.13;2.30;;;;;;;;;;5371304;26;20035;-67
2024/04/13 12:27:42;;;;;;;9.43;2.55;;;;;;;;;;5386501;26;20054;-67
2024/04/13 12:30:10;;;;;;;9.48;2.40;;;;;;;;;;5369091;26;20007;-67
2024/04/13 12:32:38;;;;;;;6.57;2.05;;;;;;;;;;5373433;26;20004;-67
2024/04/13 12:35:10;;;;;;;8.05;2.28;;;;;;;;;;5365669;26;20008;-67
2024/04/13 12:37:38;;;;;;;8.68;2.40;;;;;;;;;;5383587;26;20170;-67
2024/04/13 12:40:05;;;;;;;8.90;2.40;;;;;;;;;;5370204;26;20021;-69
2024/04/13 12:42:33;;;;;;;7.60;2.30;;;;;;;;;;5378564;26;20016;-68
2024/04/13 12:45:00;;;;;;;9.30;2.80;;;;;;;;;;5362528;26;20039;-68
2024/04/13 12:47:28;;;;;;;10.43;2.40;;;;;;;;;;5375794;26;20055;-68
2024/04/13 12:49:56;;;;;;;10.80;2.42;;;;;;;;;;5366989;26;20019;-67
2024/04/13 12:52:25;;;;;;;8.18;2.55;;;;;;;;;;5377852;26;19999;-67
2024/04/13 12:54:55;;;;;;;8.02;1.90;;;;;;;;;;5366808;26;20012;-68
2024/04/13 12:57:31;;;;;;;11.35;2.25;;;;;;;;;;5380681;26;20045;-67
2024/04/13 13:00:02;;;;;;;12.65;2.08;;;;;;;;;;5365795;26;20000;-67
2024/04/13 13:02:30;;;;;;;8.18;2.10;;;;;;;;;;5378788;26;20000;-67
2024/04/13 13:04:57;;;;;;;8.07;2.17;;;;;;;;;;5364296;26;20014;-67
2024/04/13 13:07:26;;;;;;;9.20;2.20;;;;;;;;;;5375612;26;20011;-66
2024/04/13 13:09:53;;;;;;;10.70;2.35;;;;;;;;;;5374232;26;19999;-67
2024/04/13 13:12:20;;;;;;;7.93;1.92;;;;;;;;;;5381273;26;20986;-67
2024/04/13 13:14:48;;;;;;;7.15;2.13;;;;;;;;;;5377715;26;19999;-67
2024/04/13 13:17:16;;;;;;;9.10;2.20;;;;;;;;;;5386550;26;20019;-67
2024/04/13 13:19:44;;;;;;;7.93;2.20;;;;;;;;;;5359152;26;20018;-67
2024/04/13 13:22:12;;;;;;;6.72;1.80;;;;;;;;;;5377950;26;20052;-66
2024/04/13 13:24:39;;;;;;;7.78;1.88;;;;;;;;;;5375037;26;20049;-67
2024/04/13 13:27:06;;;;;;;10.45;2.20;;;;;;;;;;5365693;26;20000;-66
2024/04/13 13:29:35;;;;;;;8.70;2.20;;;;;;;;;;5373368;26;20007;-66
2024/04/13 13:32:02;;;;;;;7.50;1.83;;;;;;;;;;5364685;26;20059;-66
2024/04/13 13:34:30;;;;;;;7.78;1.85;;;;;;;;;;5358354;26;20342;-65
2024/04/13 13:37:00;;;;;;;10.88;2.05;;;;;;;;;;5372461;26;20772;-64
2024/04/13 13:39:27;;;;;;;9.35;2.28;;;;;;;;;;5377671;26;20031;-64
2024/04/13 13:41:55;;;;;;;11.02;4.55;;;;;;;;;;5361547;26;20030;-64
2024/04/13 13:44:22;;;;;;;9.50;4.38;;;;;;;;;;5373706;26;20004;-66
2024/04/13 13:46:49;;;;;;;12.38;2.95;;;;;;;;;;5351173;26;20659;-65
2024/04/13 13:49:16;;;;;;;9.93;2.50;;;;;;;;;;5374918;26;20753;-65
2024/04/13 13:51:44;;;;;;;9.38;2.28;;;;;;;;;;5369929;26;20000;-65
2024/04/13 13:54:13;;;;;;;6.85;2.00;;;;;;;;;;5369385;26;20000;-65
2024/04/13 13:56:42;;;;;;;7.80;2.22;;;;;;;;;;5377821;26;20011;-65
2024/04/13 13:59:10;;;;;;;11.95;2.22;;;;;;;;;;5367401;26;21058;-66
2024/04/13 14:01:37;;;;;;;8.38;2.10;;;;;;;;;;5370254;26;20011;-66
2024/04/13 14:04:04;;;;;;;8.43;1.80;;;;;;;;;;5361350;26;22179;-64
2024/04/13 14:06:32;;;;;;;8.38;1.90;;;;;;;;;;5376293;26;20463;-66
2024/04/13 14:08:59;;;;;;;8.50;1.83;;;;;;;;;;5348839;26;19999;-64
2024/04/13 14:11:27;;;;;;;7.97;2.00;;;;;;;;;;5369830;26;20047;-66
2024/04/13 14:13:57;;;;;;;7.30;1.83;;;;;;;;;;5361275;26;20007;-65
2024/04/13 14:16:25;;;;;;;11.02;2.22;;;;;;;;;;5365811;26;21243;-65
2024/04/13 14:18:53;;;;;;;8.77;1.95;;;;;;;;;;5361954;26;20768;-64
2024/04/13 14:21:20;;;;;;;8.85;2.17;;;;;;;;;;5366210;26;20007;-66
2024/04/13 14:23:47;;;;;;;8.10;1.95;;;;;;;;;;5360692;26;20007;-66
2024/04/13 14:26:15;;;;;;;8.50;1.95;;;;;;;;;;5358602;26;20021;-66
2024/04/13 14:28:42;;;;;;;11.27;2.08;;;;;;;;;;5372905;26;20010;-66
2024/04/13 14:31:10;;;;;;;12.98;2.22;;;;;;;;;;5370276;26;20007;-66
2024/04/13 14:33:38;;;;;;;6.90;1.80;;;;;;;;;;5369481;26;21440;-66
2024/04/13 14:36:07;;;;;;;9.50;2.38;;;;;;;;;;5357553;26;23298;-66
2024/04/13 14:38:34;;;;;;;8.35;1.90;;;;;;;;;;5375652;26;20544;-66
2024/04/13 14:41:01;;;;;;;10.38;2.22;;;;;;;;;;5366010;26;20013;-66
2024/04/13 14:43:29;;;;;;;9.40;2.22;;;;;;;;;;5369549;26;20026;-66